createdAt,value
2019-02-18T00:02:12.171Z,57.07
2019-02-18T00:04:40.810Z,57.16
2019-02-18T00:07:14.180Z,57.61
2019-02-18T00:09:35.766Z,58.09
2019-02-18T00:12:02.569Z,58.19
2019-02-18T00:14:29.097Z,58.64
2019-02-18T00:16:55.848Z,58.41
2019-02-18T00:19:22.347Z,58.68
2019-02-18T00:21:48.842Z,58.48
2019-02-18T00:24:15.644Z,58.73
2019-02-18T00:26:42.195Z,58.70
2019-02-18T00:29:08.953Z,58.91
2019-02-18T00:31:36.377Z,58.94
2019-02-18T00:34:02.901Z,59.09
2019-02-18T00:36:29.394Z,59.12
2019-02-18T00:38:55.910Z,59.33
2019-02-18T00:41:22.410Z,59.50
2019-02-18T00:43:49.270Z,59.66
2019-02-18T00:46:15.844Z,59.73
2019-02-18T00:48:42.598Z,59.45
2019-02-18T00:51:09.485Z,59.32
2019-02-18T00:53:35.996Z,59.27
2019-02-18T00:56:02.571Z,59.42
2019-02-18T00:58:29.461Z,59.44
2019-02-18T01:00:56.035Z,59.40
2019-02-18T01:03:22.635Z,59.72
2019-02-18T01:05:49.176Z,59.87
2019-02-18T01:08:16.698Z,60.15
2019-02-18T01:10:43.284Z,60.71
2019-02-18T01:13:10.001Z,61.07
2019-02-18T01:15:36.545Z,61.40
2019-02-18T01:18:03.331Z,61.50
2019-02-18T01:20:30.131Z,61.77
2019-02-18T01:22:57.313Z,62.05
2019-02-18T01:25:24.113Z,61.94
2019-02-18T01:27:50.816Z,62.33
2019-02-18T01:30:17.615Z,62.45
2019-02-18T01:32:44.464Z,62.93
2019-02-18T01:35:11.489Z,63.43
2019-02-18T01:37:45.330Z,64.21
2019-02-18T01:40:09.282Z,64.63
2019-02-18T01:42:35.926Z,64.70
2019-02-18T01:45:03.636Z,64.54
2019-02-18T01:47:30.428Z,64.56
2019-02-18T01:49:56.973Z,64.62
2019-02-18T01:52:23.420Z,63.94
2019-02-18T01:54:50.232Z,63.22
2019-02-18T01:57:16.714Z,62.65
2019-02-18T01:59:44.576Z,61.65
2019-02-18T02:02:11.095Z,61.10
2019-02-18T02:04:37.616Z,60.89
2019-02-18T02:07:04.141Z,60.77
2019-02-18T02:09:30.671Z,60.33
2019-02-18T02:11:57.209Z,60.36
2019-02-18T02:14:23.687Z,60.20
2019-02-18T02:16:53.458Z,59.81
2019-02-18T02:19:19.962Z,59.35
2019-02-18T02:21:46.598Z,58.92
2019-02-18T02:24:13.100Z,59.07
2019-02-18T02:26:39.665Z,59.50
2019-02-18T02:29:06.226Z,59.48
2019-02-18T02:31:32.730Z,59.89
2019-02-18T02:34:01.324Z,59.60
2019-02-18T02:36:28.156Z,58.86
2019-02-18T02:38:54.915Z,59.53
2019-02-18T02:41:21.560Z,60.05
2019-02-18T02:43:48.136Z,60.96
2019-02-18T02:46:14.670Z,60.44
2019-02-18T02:48:41.186Z,60.92
2019-02-18T02:51:07.706Z,61.67
2019-02-18T02:53:34.190Z,62.31
2019-02-18T02:56:00.707Z,63.70
2019-02-18T02:58:31.334Z,64.04
2019-02-18T03:00:57.879Z,64.50
2019-02-18T03:03:24.609Z,64.05
2019-02-18T03:05:51.226Z,63.63
2019-02-18T03:08:20.607Z,63.07
2019-02-18T03:10:46.266Z,62.62
2019-02-18T03:13:12.914Z,62.42
2019-02-18T03:15:39.686Z,62.64
2019-02-18T03:18:06.239Z,62.64
2019-02-18T03:20:33.104Z,62.65
2019-02-18T03:22:59.604Z,62.73
2019-02-18T03:25:27.604Z,62.30
2019-02-18T03:28:32.143Z,62.06
2019-02-18T03:31:04.907Z,61.83
2019-02-18T03:33:40.838Z,61.89
2019-02-18T03:36:07.850Z,62.85
2019-02-18T03:38:34.356Z,63.50
2019-02-18T03:41:03.409Z,63.90
2019-02-18T03:43:30.276Z,63.70
2019-02-18T03:45:56.764Z,63.45
2019-02-18T03:48:23.562Z,63.78
2019-02-18T03:50:50.024Z,62.90
2019-02-18T03:53:16.640Z,62.85
2019-02-18T03:55:43.148Z,62.05
2019-02-18T03:58:09.651Z,63.01
2019-02-18T04:00:36.260Z,64.14
2019-02-18T04:03:02.793Z,65.12
2019-02-18T04:05:29.280Z,65.63
2019-02-18T04:07:55.875Z,66.51
2019-02-18T04:10:22.355Z,67.11
2019-02-18T04:12:49.196Z,67.66
2019-02-18T04:15:15.718Z,68.80
2019-02-18T04:17:42.471Z,69.79
2019-02-18T04:20:09.343Z,70.33
2019-02-18T04:22:35.841Z,70.35
2019-02-18T04:25:02.562Z,70.33
2019-02-18T04:27:29.104Z,70.22
2019-02-18T04:29:55.559Z,69.34
2019-02-18T04:32:22.088Z,68.60
2019-02-18T04:34:48.601Z,68.14
2019-02-18T04:37:15.074Z,67.79
2019-02-18T04:39:41.627Z,68.29
2019-02-18T04:42:08.110Z,68.07
2019-02-18T04:44:34.656Z,66.76
2019-02-18T04:47:01.190Z,64.94
2019-02-18T04:49:27.695Z,64.21
2019-02-18T04:51:54.255Z,63.11
2019-02-18T04:54:20.776Z,61.94
2019-02-18T04:56:47.287Z,60.34
2019-02-18T04:59:14.004Z,59.81
2019-02-18T05:01:40.517Z,59.21
2019-02-18T05:04:07.007Z,59.01
2019-02-18T05:06:33.488Z,59.56
2019-02-18T05:09:05.226Z,60.77
2019-02-18T05:11:28.403Z,61.69
2019-02-18T05:13:54.899Z,62.81
2019-02-18T05:16:21.405Z,63.58
2019-02-18T05:18:47.901Z,64.63
2019-02-18T05:21:14.407Z,66.13
2019-02-18T05:23:40.928Z,67.49
2019-02-18T05:26:07.449Z,68.07
2019-02-18T05:28:34.003Z,68.52
2019-02-18T05:31:03.065Z,68.84
2019-02-18T05:33:29.709Z,68.85
2019-02-18T05:35:56.534Z,68.66
2019-02-18T05:38:23.024Z,68.70
2019-02-18T05:40:50.643Z,69.25
2019-02-18T05:43:18.269Z,69.55
2019-02-18T05:45:44.741Z,69.91
2019-02-18T05:48:11.503Z,69.64
2019-02-18T05:50:38.327Z,69.67
2019-02-18T05:53:04.803Z,69.24
2019-02-18T05:55:31.306Z,69.60
2019-02-18T05:57:57.808Z,70.01
2019-02-18T06:00:24.362Z,70.22
2019-02-18T06:02:50.844Z,70.59
2019-02-18T06:05:19.406Z,70.84
2019-02-18T06:07:45.969Z,70.99
2019-02-18T06:10:13.918Z,71.84
2019-02-18T06:12:47.221Z,72.28
2019-02-18T06:15:14.036Z,72.57
2019-02-18T06:17:40.703Z,72.84
2019-02-18T06:20:07.507Z,72.62
2019-02-18T06:22:34.105Z,72.43
2019-02-18T06:25:01.294Z,72.78
2019-02-18T06:27:28.460Z,72.36
2019-02-18T06:29:55.173Z,72.16
2019-02-18T06:32:22.086Z,72.34
2019-02-18T06:34:49.180Z,71.67
2019-02-18T06:37:16.569Z,71.13
2019-02-18T06:39:43.461Z,70.90
2019-02-18T06:42:11.350Z,70.18
2019-02-18T06:45:01.017Z,69.48
2019-02-18T06:47:30.945Z,68.98
2019-02-18T06:49:57.545Z,67.66
2019-02-18T06:52:24.182Z,67.03
2019-02-18T06:54:50.713Z,66.99
2019-02-18T06:57:25.237Z,66.70
2019-02-18T06:59:54.634Z,66.72
2019-02-18T07:02:40.963Z,67.95
2019-02-18T07:05:16.405Z,68.96
2019-02-18T07:08:14.339Z,69.96
2019-02-18T07:10:55.335Z,69.76
2019-02-18T07:13:22.238Z,68.76
2019-02-18T07:15:48.866Z,67.54
2019-02-18T07:18:15.445Z,67.43
2019-02-18T07:20:42.027Z,67.45
2019-02-18T07:23:08.543Z,68.26
2019-02-18T07:25:35.403Z,68.99
2019-02-18T07:28:02.060Z,69.21
2019-02-18T07:30:28.746Z,69.39
2019-02-18T07:32:55.358Z,70.08
2019-02-18T07:35:21.927Z,70.83
2019-02-18T07:37:48.396Z,70.62
2019-02-18T07:40:14.936Z,70.53
2019-02-18T07:42:41.470Z,69.67
2019-02-18T07:45:08.406Z,68.88
2019-02-18T07:47:34.953Z,68.80
2019-02-18T07:50:01.498Z,68.34
2019-02-18T07:52:28.317Z,68.25
2019-02-18T07:54:55.922Z,67.90
2019-02-18T07:57:23.097Z,67.24
2019-02-18T07:59:50.490Z,68.83
2019-02-18T08:02:17.758Z,69.33
2019-02-18T08:04:52.666Z,69.38
2019-02-18T08:07:26.042Z,69.63
2019-02-18T08:10:00.288Z,68.95
2019-02-18T08:12:34.485Z,67.89
2019-02-18T08:15:06.801Z,66.47
2019-02-18T08:17:38.215Z,65.64
2019-02-18T08:20:08.972Z,64.70
2019-02-18T08:22:36.783Z,62.48
2019-02-18T08:25:03.767Z,60.22
2019-02-18T08:27:30.761Z,61.05
2019-02-18T08:29:58.850Z,60.16
2019-02-18T08:32:25.830Z,58.36
2019-02-18T08:34:52.478Z,55.25
2019-02-18T08:37:19.216Z,51.92
2019-02-18T08:39:46.366Z,48.54
2019-02-18T08:42:13.030Z,46.22
2019-02-18T08:44:39.844Z,45.78
2019-02-18T08:47:06.517Z,44.62
2019-02-18T08:49:33.180Z,43.29
2019-02-18T08:51:59.933Z,41.63
2019-02-18T08:54:26.503Z,41.24
2019-02-18T08:56:53.297Z,41.35
2019-02-18T08:59:19.987Z,41.21
2019-02-18T09:01:47.109Z,41.19
2019-02-18T09:04:13.937Z,41.01
2019-02-18T09:06:40.512Z,41.08
2019-02-18T09:09:07.298Z,41.67
2019-02-18T09:11:33.999Z,41.93
2019-02-18T09:14:00.671Z,40.14
2019-02-18T09:16:27.324Z,40.18
2019-02-18T09:18:54.707Z,39.91
2019-02-18T09:21:22.469Z,37.93
2019-02-18T09:24:00.101Z,37.78
2019-02-18T09:26:28.265Z,37.40
2019-02-18T09:28:55.129Z,36.59
2019-02-18T09:31:29.925Z,37.63
2019-02-18T09:33:56.665Z,37.19
2019-02-18T09:36:23.545Z,36.71
2019-02-18T09:38:50.375Z,36.78
2019-02-18T09:41:17.198Z,37.78
2019-02-18T09:43:44.082Z,38.21
2019-02-18T09:46:10.987Z,37.74
2019-02-18T09:48:38.735Z,37.19
2019-02-18T09:51:05.387Z,36.38
2019-02-18T09:53:31.984Z,35.58
2019-02-18T09:55:59.473Z,36.52
2019-02-18T09:58:26.812Z,35.21
2019-02-18T10:00:53.448Z,33.66
2019-02-18T10:03:31.025Z,33.39
2019-02-18T10:05:51.036Z,32.51
2019-02-18T10:08:17.792Z,31.37
2019-02-18T10:10:55.080Z,31.33
2019-02-18T10:13:13.109Z,32.21
2019-02-18T10:15:40.035Z,32.07
2019-02-18T10:18:06.709Z,31.80
2019-02-18T10:20:33.374Z,31.31
2019-02-18T10:23:00.106Z,31.71
2019-02-18T10:25:28.133Z,30.93
2019-02-18T10:27:55.165Z,31.12
2019-02-18T10:30:21.815Z,31.76
2019-02-18T10:32:48.533Z,30.81
2019-02-18T10:35:15.572Z,30.95
2019-02-18T10:37:43.670Z,31.65
2019-02-18T10:40:10.722Z,31.73
2019-02-18T10:42:37.272Z,31.47
2019-02-18T10:45:05.420Z,30.44
2019-02-18T10:47:32.168Z,30.23
2019-02-18T10:49:58.706Z,30.49
2019-02-18T10:52:25.799Z,30.49
2019-02-18T10:54:52.361Z,31.24
2019-02-18T10:57:19.260Z,32.01
2019-02-18T10:59:45.773Z,31.64
2019-02-18T11:02:12.573Z,31.41
2019-02-18T11:04:39.224Z,31.72
2019-02-18T11:07:06.157Z,31.99
2019-02-18T11:09:32.737Z,31.99
2019-02-18T11:11:59.320Z,31.65
2019-02-18T11:14:30.329Z,32.22
2019-02-18T11:16:56.840Z,31.99
2019-02-18T11:19:23.472Z,31.78
2019-02-18T11:21:50.361Z,32.40
2019-02-18T11:24:20.680Z,31.52
2019-02-18T11:26:46.860Z,31.52
2019-02-18T11:29:14.090Z,31.29
2019-02-18T11:31:40.761Z,31.29
2019-02-18T11:34:07.490Z,31.91
2019-02-18T11:36:34.475Z,31.67
2019-02-18T11:39:01.079Z,32.17
2019-02-18T11:41:27.855Z,31.14
2019-02-18T11:43:54.896Z,31.01
2019-02-18T11:46:21.491Z,30.89
2019-02-18T11:48:48.312Z,31.06
2019-02-18T11:51:15.376Z,31.62
2019-02-18T11:53:42.048Z,31.13
2019-02-18T11:56:09.557Z,31.26
2019-02-18T11:58:36.380Z,31.29
2019-02-18T12:01:03.262Z,31.01
2019-02-18T12:03:29.872Z,30.19
2019-02-18T12:05:56.420Z,29.49
2019-02-18T12:08:23.044Z,29.97
2019-02-18T12:10:49.816Z,29.74
2019-02-18T12:13:16.322Z,30.40
2019-02-18T12:15:42.879Z,30.55
2019-02-18T12:18:09.362Z,30.65
2019-02-18T12:20:36.661Z,30.03
2019-02-18T12:23:03.518Z,30.28
2019-02-18T12:25:30.485Z,31.05
2019-02-18T12:27:57.420Z,31.54
2019-02-18T12:30:24.222Z,30.68
2019-02-18T12:32:50.886Z,31.52
2019-02-18T12:35:17.799Z,30.62
2019-02-18T12:37:54.653Z,30.73
2019-02-18T12:40:12.890Z,31.00
2019-02-18T12:42:41.946Z,30.88
2019-02-18T12:45:08.485Z,31.07
2019-02-18T12:47:35.130Z,31.12
2019-02-18T12:50:01.719Z,30.88
2019-02-18T12:52:28.507Z,30.60
2019-02-18T12:54:55.086Z,30.65
2019-02-18T12:57:21.755Z,31.13
2019-02-18T12:59:48.469Z,31.40
2019-02-18T13:02:15.428Z,31.23
2019-02-18T13:04:42.291Z,31.58
2019-02-18T13:07:08.833Z,31.82
2019-02-18T13:09:35.312Z,31.44
2019-02-18T13:12:01.929Z,31.05
2019-02-18T13:14:28.469Z,30.93
2019-02-18T13:16:55.002Z,31.48
2019-02-18T13:19:21.939Z,31.58
2019-02-18T13:21:48.507Z,32.03
2019-02-18T13:24:15.303Z,31.98
2019-02-18T13:26:41.871Z,32.99
2019-02-18T13:29:08.396Z,33.42
2019-02-18T13:31:35.041Z,33.66
2019-02-18T13:34:01.590Z,33.85
2019-02-18T13:36:28.426Z,34.85
2019-02-18T13:38:55.000Z,34.56
2019-02-18T13:41:21.542Z,34.43
2019-02-18T13:43:48.411Z,34.44
2019-02-18T13:46:14.982Z,33.84
2019-02-18T13:48:41.521Z,34.26
2019-02-18T13:51:08.062Z,34.03
2019-02-18T13:53:34.614Z,34.42
2019-02-18T13:56:01.315Z,34.53
2019-02-18T13:58:28.176Z,35.05
2019-02-18T14:00:54.791Z,35.07
2019-02-18T14:03:21.739Z,35.93
2019-02-18T14:05:48.475Z,36.52
2019-02-18T14:08:15.032Z,36.50
2019-02-18T14:10:41.583Z,36.80
2019-02-18T14:13:08.157Z,37.23
2019-02-18T14:15:34.804Z,37.30
2019-02-18T14:18:01.366Z,37.24
2019-02-18T14:20:27.871Z,37.40
2019-02-18T14:22:54.843Z,37.18
2019-02-18T14:25:21.389Z,37.58
2019-02-18T14:27:47.996Z,37.72
2019-02-18T14:30:16.254Z,37.87
2019-02-18T14:32:46.802Z,37.78
2019-02-18T14:35:14.754Z,38.56
2019-02-18T14:37:41.386Z,38.88
2019-02-18T14:40:09.740Z,39.60
2019-02-18T14:42:36.886Z,39.82
2019-02-18T14:45:03.567Z,39.88
2019-02-18T14:47:30.292Z,40.06
2019-02-18T14:49:57.232Z,40.49
2019-02-18T14:52:24.274Z,39.99
2019-02-18T14:54:51.307Z,40.70
2019-02-18T14:57:18.696Z,40.37
2019-02-18T14:59:46.288Z,41.33
2019-02-18T15:02:16.275Z,41.47
2019-02-18T15:04:52.164Z,41.45
2019-02-18T15:07:24.642Z,41.20
2019-02-18T15:09:51.599Z,40.91
2019-02-18T15:12:18.549Z,41.01
2019-02-18T15:14:45.035Z,41.30
2019-02-18T15:17:11.989Z,41.84
2019-02-18T15:19:38.701Z,41.46
2019-02-18T15:22:05.246Z,41.67
2019-02-18T15:24:31.882Z,42.26
2019-02-18T15:26:58.599Z,42.81
2019-02-18T15:29:30.034Z,43.04
2019-02-18T15:31:56.955Z,43.12
2019-02-18T15:34:28.555Z,43.35
2019-02-18T15:36:55.285Z,42.96
2019-02-18T15:39:22.189Z,42.99
2019-02-18T15:41:48.757Z,43.01
2019-02-18T15:44:15.322Z,43.23
2019-02-18T15:46:42.310Z,43.23
2019-02-18T15:49:08.942Z,43.51
2019-02-18T15:51:35.599Z,45.17
2019-02-18T15:54:02.086Z,46.87
2019-02-18T15:56:28.705Z,46.27
2019-02-18T15:58:55.228Z,46.60
2019-02-18T16:01:22.098Z,48.54
2019-02-18T16:03:48.857Z,50.96
2019-02-18T16:06:15.612Z,50.62
2019-02-18T16:08:42.129Z,55.34
2019-02-18T16:11:08.983Z,54.82
2019-02-18T16:13:37.925Z,54.01
2019-02-18T16:16:04.608Z,52.59
2019-02-18T16:18:31.289Z,52.04
2019-02-18T16:20:58.092Z,54.14
2019-02-18T16:23:25.062Z,54.36
2019-02-18T16:25:51.688Z,54.77
2019-02-18T16:28:18.556Z,55.13
2019-02-18T16:30:45.023Z,55.86
2019-02-18T16:33:11.602Z,54.93
2019-02-18T16:35:38.792Z,54.30
2019-02-18T16:38:05.841Z,54.32
2019-02-18T16:40:32.885Z,51.01
2019-02-18T16:42:59.690Z,49.08
2019-02-18T16:45:27.081Z,47.59
2019-02-18T16:47:54.032Z,47.60
2019-02-18T16:50:29.866Z,46.20
2019-02-18T16:52:56.700Z,44.96
2019-02-18T16:55:33.111Z,44.68
2019-02-18T16:58:08.668Z,45.06
2019-02-18T17:00:38.713Z,44.82
2019-02-18T17:03:06.901Z,45.53
2019-02-18T17:05:37.370Z,44.60
2019-02-18T17:08:03.873Z,44.32
2019-02-18T17:10:39.402Z,44.43
2019-02-18T17:13:08.461Z,43.93
2019-02-18T17:15:44.751Z,44.59
2019-02-18T17:18:24.579Z,45.04
2019-02-18T17:21:01.685Z,45.99
2019-02-18T17:23:28.201Z,46.93
2019-02-18T17:25:54.816Z,46.89
2019-02-18T17:28:21.296Z,47.35
2019-02-18T17:30:47.777Z,47.54
2019-02-18T17:33:14.290Z,47.62
2019-02-18T17:35:41.152Z,47.75
2019-02-18T17:38:08.042Z,48.22
2019-02-18T17:40:34.523Z,48.95
2019-02-18T17:43:01.089Z,48.73
2019-02-18T17:45:27.589Z,48.83
2019-02-18T17:47:54.114Z,48.93
2019-02-18T17:50:20.885Z,49.32
2019-02-18T17:52:47.429Z,49.40
2019-02-18T17:55:14.318Z,49.49
2019-02-18T17:57:41.150Z,49.77
2019-02-18T18:00:14.296Z,49.96
2019-02-18T18:02:40.966Z,49.78
2019-02-18T18:05:10.384Z,49.87
2019-02-18T18:07:47.410Z,49.95
2019-02-18T18:10:14.426Z,50.38
2019-02-18T18:12:40.953Z,50.37
2019-02-18T18:15:08.510Z,50.78
2019-02-18T18:17:35.077Z,51.07
2019-02-18T18:20:01.921Z,51.37
2019-02-18T18:22:28.507Z,51.79
2019-02-18T18:24:55.036Z,52.13
2019-02-18T18:27:21.572Z,52.30
2019-02-18T18:29:50.144Z,52.17
2019-02-18T18:32:16.654Z,52.61
2019-02-18T18:34:43.189Z,52.67
2019-02-18T18:37:09.774Z,52.67
2019-02-18T18:39:38.603Z,52.90
2019-02-18T18:42:05.199Z,53.01
2019-02-18T18:44:31.877Z,53.14
2019-02-18T18:47:02.003Z,53.28
2019-02-18T18:49:28.601Z,53.68
2019-02-18T18:51:55.706Z,53.66
2019-02-18T18:54:22.278Z,53.77
2019-02-18T18:56:51.799Z,53.72
2019-02-18T18:59:21.339Z,53.62
2019-02-18T19:01:49.157Z,53.78
2019-02-18T19:04:16.028Z,53.55
2019-02-18T19:06:42.667Z,53.41
2019-02-18T19:09:09.528Z,53.32
2019-02-18T19:11:36.085Z,53.21
2019-02-18T19:14:02.666Z,52.52
2019-02-18T19:16:29.373Z,52.27
2019-02-18T19:18:55.914Z,51.97
2019-02-18T19:21:22.729Z,52.08
2019-02-18T19:23:49.391Z,51.80
2019-02-18T19:26:16.130Z,50.99
2019-02-18T19:28:44.472Z,50.75
2019-02-18T19:31:11.310Z,49.93
2019-02-18T19:33:38.280Z,49.92
2019-02-18T19:36:05.042Z,50.03
2019-02-18T19:38:32.243Z,50.60
2019-02-18T19:40:59.251Z,50.10
2019-02-18T19:43:25.744Z,50.04
2019-02-18T19:45:52.347Z,50.44
2019-02-18T19:48:18.885Z,50.68
2019-02-18T19:50:45.548Z,50.43
2019-02-18T19:53:12.077Z,50.25
2019-02-18T19:55:39.385Z,50.13
2019-02-18T19:58:06.115Z,49.98
2019-02-18T20:00:32.844Z,49.53
2019-02-18T20:03:00.799Z,49.08
2019-02-18T20:05:36.368Z,48.99
2019-02-18T20:08:09.507Z,49.25
2019-02-18T20:10:37.149Z,49.46
2019-02-18T20:13:04.239Z,49.69
2019-02-18T20:15:31.059Z,49.69
2019-02-18T20:17:58.940Z,49.41
2019-02-18T20:20:25.527Z,49.09
2019-02-18T20:22:52.259Z,48.97
2019-02-18T20:25:20.602Z,48.91
2019-02-18T20:27:48.103Z,49.05
2019-02-18T20:30:15.185Z,49.43
2019-02-18T20:32:41.737Z,49.93
2019-02-18T20:35:08.794Z,50.52
2019-02-18T20:37:35.676Z,50.86
2019-02-18T20:40:03.956Z,50.52
2019-02-18T20:42:33.611Z,49.88
2019-02-18T20:45:00.238Z,49.95
2019-02-18T20:47:26.746Z,49.66
2019-02-18T20:49:53.585Z,49.43
2019-02-18T20:52:20.145Z,49.55
2019-02-18T20:54:50.070Z,49.32
2019-02-18T20:57:18.933Z,49.24
2019-02-18T20:59:49.212Z,49.62
2019-02-18T21:02:16.183Z,49.67
2019-02-18T21:04:52.239Z,49.40
2019-02-18T21:07:20.262Z,49.49
2019-02-18T21:09:49.019Z,49.39
2019-02-18T21:12:19.858Z,49.26
2019-02-18T21:14:44.973Z,49.61
2019-02-18T21:17:11.502Z,49.87
2019-02-18T21:19:40.794Z,50.04
2019-02-18T21:22:07.444Z,50.61
2019-02-18T21:24:34.176Z,50.69
2019-02-18T21:27:01.225Z,50.47
2019-02-18T21:29:28.473Z,50.10
2019-02-18T21:31:56.497Z,49.71
2019-02-18T21:34:23.018Z,49.42
2019-02-18T21:36:51.476Z,49.44
2019-02-18T21:39:26.376Z,48.96
2019-02-18T21:41:52.885Z,49.09
2019-02-18T21:44:24.915Z,48.45
2019-02-18T21:46:47.858Z,48.07
2019-02-18T21:49:14.414Z,47.52
2019-02-18T21:51:40.953Z,47.10
2019-02-18T21:54:07.616Z,47.11
2019-02-18T21:56:34.140Z,47.38
2019-02-18T21:59:00.710Z,47.88
2019-02-18T22:01:27.260Z,48.00
2019-02-18T22:03:53.735Z,48.34
2019-02-18T22:06:20.649Z,48.45
2019-02-18T22:08:47.484Z,49.21
2019-02-18T22:11:14.012Z,49.87
2019-02-18T22:13:40.637Z,50.50
2019-02-18T22:16:07.172Z,51.10
2019-02-18T22:18:33.650Z,51.85
2019-02-18T22:21:00.272Z,51.98
2019-02-18T22:23:26.807Z,52.58
2019-02-18T22:25:53.284Z,52.71
2019-02-18T22:28:20.316Z,53.00
2019-02-18T22:30:47.162Z,52.77
2019-02-18T22:33:13.711Z,52.79
2019-02-18T22:35:40.231Z,53.29
2019-02-18T22:38:06.754Z,53.66
2019-02-18T22:40:33.239Z,54.16
2019-02-18T22:42:59.737Z,54.35
2019-02-18T22:45:26.260Z,54.67
2019-02-18T22:47:53.366Z,54.93
2019-02-18T22:50:19.809Z,55.67
2019-02-18T22:52:46.294Z,56.18
2019-02-18T22:55:13.175Z,56.92
2019-02-18T22:57:39.699Z,57.40
2019-02-18T23:00:13.769Z,57.97
2019-02-18T23:02:42.890Z,58.13
2019-02-18T23:05:09.864Z,58.36
2019-02-18T23:07:36.535Z,58.61
2019-02-18T23:10:03.442Z,58.35
2019-02-18T23:12:29.933Z,58.15
2019-02-18T23:14:57.223Z,58.15
2019-02-18T23:17:29.691Z,57.49
2019-02-18T23:19:56.233Z,57.35
2019-02-18T23:22:22.753Z,57.35
2019-02-18T23:24:49.618Z,57.46
2019-02-18T23:27:16.111Z,57.16
2019-02-18T23:29:42.895Z,57.08
2019-02-18T23:32:09.362Z,57.14
2019-02-18T23:34:35.900Z,57.50
2019-02-18T23:37:02.393Z,57.80
2019-02-18T23:39:28.860Z,56.60
2019-02-18T23:41:55.406Z,56.35
2019-02-18T23:44:21.923Z,56.85
2019-02-18T23:46:48.665Z,57.19
2019-02-18T23:49:15.200Z,57.23
2019-02-18T23:51:41.780Z,57.09
2019-02-18T23:54:08.287Z,56.31
2019-02-18T23:56:34.784Z,56.49
2019-02-18T23:59:01.512Z,56.58
